This is the latest recevied weather packets stored in our database for station/object HS5FXK-3. If no packets are shown the sender has not sent any weather packets the latest 1 day(s).
| Time | Temp. | Humidity | Pressure | Rain* | Wind** | Luminosity | Snow |
|---|---|---|---|---|---|---|---|
| 1778040843 | 37.22° C | 43% | 979 hPa | - | 0 m/s | 0 W/m² | - |
| 1778040408 | 38.89° C | 42% | 979 hPa | - | 0 m/s | 0 W/m² | - |
| 1778040006 | 38.33° C | 45% | 979 hPa | - | 0 m/s | 0 W/m² | - |
| 1778039084 | 35.56° C | 49% | 979 hPa | - | 0 m/s | 0 W/m² | - |
| 1778038172 | 36.11° C | 48% | 980 hPa | - | 0 m/s | 0 W/m² | - |
| 1778037548 | 36.11° C | 52% | 980 hPa | - | 0 m/s | 0 W/m² | - |
| 1778036636 | 35.56° C | 56% | 980 hPa | - | 0 m/s | 0 W/m² | - |
| 1778035723 | 35° C | 59% | 980 hPa | - | 0 m/s | 0 W/m² | - |
| 1778034811 | 34.44° C | 62% | 980 hPa | - | 0 m/s | 0 W/m² | - |
| 1778033900 | 33.33° C | 65% | 980 hPa | - | 0 m/s | 0 W/m² | - |
| 1778032985 | 32.22° C | 69% | 980 hPa | - | 0 m/s | 0 W/m² | - |
| 1778032072 | 32.22° C | 75% | 980 hPa | - | 0 m/s | 0 W/m² | - |
| 1778031158 | 31.11° C | 83% | 980 hPa | - | 0 m/s | 0 W/m² | - |
| 1778030245 | 30.56° C | 89% | 980 hPa | - | 0 m/s | 0 W/m² | - |
| 1778029332 | 29.44° C | 96% | 980 hPa | - | 0 m/s | 0 W/m² | - |
| 1778028420 | 28.89° C | 97% | 980 hPa | - | 0 m/s | 0 W/m² | - |
| 1778027292 | 28.33° C | 99% | 979 hPa | - | 0 m/s | 0 W/m² | - |
| 1778024549 | 27.22° C | 99% | 979 hPa | - | 0 m/s | 0 W/m² | - |
| 1778023638 | 27.22° C | 99% | 978 hPa | - | 0 m/s | 0 W/m² | - |
| 1778021811 | 27.22° C | 99% | 978 hPa | - | 0 m/s | 0 W/m² | - |
| 1778020898 | 27.22° C | 99% | 978 hPa | - | 0 m/s | 0 W/m² | - |
| 1778019071 | 27.22° C | 99% | 978 hPa | - | 0 m/s | 0 W/m² | - |
| 1778017249 | 27.78° C | 99% | 978 hPa | - | 0 m/s | 0 W/m² | - |
| 1778016334 | 27.78° C | 99% | 978 hPa | - | 0 m/s | 0 W/m² | - |
| 1778015421 | 28.33° C | 99% | 978 hPa | - | 0 m/s | 0 W/m² | - |
* Rain since midnight (hover to see other rain measurements)
** Current wind speed in m/s (hover to see current wind gust speed)